createdAt,value
2023-05-10T00:02:03.879Z,9.20
2023-05-10T00:04:30.815Z,7.72
2023-05-10T00:06:57.773Z,4.78
2023-05-10T00:09:24.884Z,10.35
2023-05-10T00:11:51.867Z,6.40
2023-05-10T00:14:19.424Z,7.20
2023-05-10T00:16:46.607Z,6.28
2023-05-10T00:19:13.581Z,5.55
2023-05-10T00:21:40.709Z,6.55
2023-05-10T00:24:11.005Z,6.55
2023-05-10T00:26:37.987Z,11.50
2023-05-10T00:29:05.109Z,6.07
2023-05-10T00:31:32.135Z,5.32
2023-05-10T00:33:59.125Z,5.68
2023-05-10T00:36:26.136Z,8.00
2023-05-10T00:38:53.048Z,7.78
2023-05-10T00:41:20.134Z,9.05
2023-05-10T00:43:47.866Z,7.07
2023-05-10T00:46:16.961Z,9.57
2023-05-10T00:48:45.705Z,7.05
2023-05-10T00:51:12.687Z,7.55
2023-05-10T00:53:39.780Z,9.88
2023-05-10T00:56:07.460Z,8.73
2023-05-10T00:58:34.814Z,6.32
2023-05-10T01:01:02.688Z,9.55
2023-05-10T01:03:30.339Z,9.77
2023-05-10T01:05:57.410Z,10.63
2023-05-10T01:08:26.170Z,11.52
2023-05-10T01:10:53.699Z,6.53
2023-05-10T01:13:28.972Z,9.98
2023-05-10T01:15:56.845Z,12.52
2023-05-10T01:18:24.459Z,13.85
2023-05-10T01:21:09.115Z,10.43
2023-05-10T01:24:15.389Z,8.70
2023-05-10T01:27:03.332Z,9.75
2023-05-10T01:30:10.016Z,9.45
2023-05-10T01:33:02.946Z,7.60
2023-05-10T01:35:42.939Z,9.30
2023-05-10T01:38:09.934Z,12.23
2023-05-10T01:40:43.764Z,6.80
2023-05-10T01:43:19.700Z,6.47
2023-05-10T01:46:01.062Z,12.35
2023-05-10T01:48:31.239Z,9.07
2023-05-10T01:50:59.357Z,9.68
2023-05-10T01:53:28.405Z,10.07
2023-05-10T01:55:57.816Z,13.82
2023-05-10T01:58:29.618Z,9.77
2023-05-10T02:00:59.394Z,7.65
2023-05-10T02:03:28.458Z,7.68
2023-05-10T02:05:57.174Z,6.93
2023-05-10T02:08:25.585Z,9.52
2023-05-10T02:10:55.223Z,7.15
2023-05-10T02:13:24.537Z,8.48
2023-05-10T02:15:54.304Z,6.28
2023-05-10T02:18:23.400Z,6.07
2023-05-10T02:20:52.114Z,7.35
2023-05-10T02:23:20.072Z,8.90
2023-05-10T02:25:49.368Z,5.55
2023-05-10T02:28:18.362Z,9.05
2023-05-10T02:30:45.779Z,9.68
2023-05-10T02:33:13.341Z,7.93
2023-05-10T02:35:41.436Z,9.57
2023-05-10T02:38:10.364Z,5.60
2023-05-10T02:40:38.612Z,7.97
2023-05-10T02:43:08.070Z,6.05
2023-05-10T02:45:37.543Z,8.30
2023-05-10T02:48:05.135Z,8.32
2023-05-10T02:50:34.288Z,8.03
2023-05-10T02:53:04.250Z,6.70
2023-05-10T02:55:39.124Z,8.18
2023-05-10T02:58:06.545Z,9.05
2023-05-10T03:00:33.813Z,8.15
2023-05-10T03:03:01.742Z,12.77
2023-05-10T03:05:29.057Z,7.63
2023-05-10T03:07:59.253Z,7.40
2023-05-10T03:10:30.458Z,7.95
2023-05-10T03:13:29.357Z,10.88
2023-05-10T03:16:18.160Z,8.90
2023-05-10T03:19:01.160Z,7.40
2023-05-10T03:21:31.055Z,8.40
2023-05-10T03:24:08.236Z,7.80
2023-05-10T03:26:38.374Z,9.27
2023-05-10T03:29:12.781Z,6.32
2023-05-10T03:31:40.416Z,7.82
2023-05-10T03:34:08.100Z,9.43
2023-05-10T03:36:35.538Z,11.60
2023-05-10T03:39:02.697Z,8.38
2023-05-10T03:41:30.400Z,7.90
2023-05-10T03:43:57.423Z,12.73
2023-05-10T03:46:24.386Z,4.80
2023-05-10T03:48:51.693Z,4.97
2023-05-10T03:51:19.040Z,3.42
2023-05-10T03:53:46.020Z,2.85
2023-05-10T03:56:13.294Z,2.25
2023-05-10T03:58:40.308Z,4.28
2023-05-10T04:01:07.472Z,3.92
2023-05-10T04:03:36.368Z,2.17
2023-05-10T04:06:04.109Z,3.20
2023-05-10T04:08:31.713Z,2.53
2023-05-10T04:11:08.718Z,3.83
2023-05-10T04:13:36.090Z,2.75
2023-05-10T04:16:03.420Z,4.57
2023-05-10T04:18:30.482Z,8.27
2023-05-10T04:20:57.364Z,2.85
2023-05-10T04:23:24.373Z,3.45
2023-05-10T04:25:51.420Z,5.28
2023-05-10T04:28:18.303Z,11.93
2023-05-10T04:30:45.259Z,1.77
2023-05-10T04:33:12.279Z,3.08
2023-05-10T04:35:41.130Z,12.85
2023-05-10T04:38:08.202Z,5.63
2023-05-10T04:40:35.512Z,2.95
2023-05-10T04:43:02.545Z,4.68
2023-05-10T04:45:29.486Z,4.63
2023-05-10T04:47:56.507Z,6.50
2023-05-10T04:50:23.454Z,3.20
2023-05-10T04:52:50.421Z,5.40
2023-05-10T04:55:17.334Z,3.60
2023-05-10T04:57:44.366Z,4.03
2023-05-10T05:00:12.127Z,6.47
2023-05-10T05:02:39.304Z,6.57
2023-05-10T05:05:06.868Z,4.55
2023-05-10T05:07:34.376Z,5.82
2023-05-10T05:10:01.247Z,7.10
2023-05-10T05:12:28.098Z,5.05
2023-05-10T05:14:55.096Z,4.35
2023-05-10T05:17:22.017Z,4.97
2023-05-10T05:19:49.057Z,4.75
2023-05-10T05:22:17.246Z,4.32
2023-05-10T05:24:46.088Z,4.57
2023-05-10T05:27:13.009Z,3.65
2023-05-10T05:29:40.417Z,5.30
2023-05-10T05:32:09.534Z,3.10
2023-05-10T05:34:36.747Z,5.03
2023-05-10T05:37:03.695Z,2.85
2023-05-10T05:39:30.782Z,4.20
2023-05-10T05:41:57.791Z,3.03
2023-05-10T05:44:24.905Z,7.15
2023-05-10T05:46:51.802Z,7.68
2023-05-10T05:49:18.813Z,4.25
2023-05-10T05:51:46.603Z,5.97
2023-05-10T05:54:13.588Z,4.65
2023-05-10T05:56:40.698Z,4.03
2023-05-10T05:59:07.739Z,9.60
2023-05-10T06:01:35.012Z,7.10
2023-05-10T06:04:02.147Z,3.28
2023-05-10T06:06:29.332Z,5.50
2023-05-10T06:08:56.254Z,5.88
2023-05-10T06:11:23.491Z,13.63
2023-05-10T06:13:50.677Z,7.20
2023-05-10T06:16:17.853Z,5.82
2023-05-10T06:18:44.824Z,6.03
2023-05-10T06:21:11.823Z,6.78
2023-05-10T06:23:38.796Z,8.05
2023-05-10T06:26:05.737Z,4.50
2023-05-10T06:28:33.428Z,10.73
2023-05-10T06:31:01.345Z,8.73
2023-05-10T06:33:28.696Z,6.50
2023-05-10T06:35:55.637Z,6.57
2023-05-10T06:38:23.063Z,1.77
2023-05-10T06:40:50.456Z,7.18
2023-05-10T06:43:17.914Z,9.70
2023-05-10T06:45:44.957Z,9.23
2023-05-10T06:48:12.041Z,9.00
2023-05-10T06:50:42.105Z,11.10
2023-05-10T06:53:09.413Z,8.65
2023-05-10T06:55:36.606Z,6.45
2023-05-10T06:58:03.561Z,11.27
2023-05-10T07:00:30.544Z,7.28
2023-05-10T07:02:57.604Z,7.10
2023-05-10T07:05:24.733Z,6.88
2023-05-10T07:07:52.742Z,5.90
2023-05-10T07:10:19.810Z,3.50
2023-05-10T07:12:46.879Z,7.50
2023-05-10T07:15:13.931Z,6.18
2023-05-10T07:17:43.268Z,8.40
2023-05-10T07:20:12.265Z,9.02
2023-05-10T07:22:39.329Z,9.25
2023-05-10T07:25:06.905Z,4.13
2023-05-10T07:27:33.828Z,7.90
2023-05-10T07:30:01.667Z,7.28
2023-05-10T07:32:28.732Z,5.47
2023-05-10T07:34:55.764Z,7.60
2023-05-10T07:37:22.711Z,5.15
2023-05-10T07:39:49.764Z,13.10
2023-05-10T07:42:16.628Z,10.45
2023-05-10T07:44:44.395Z,4.18
2023-05-10T07:47:12.082Z,11.25
2023-05-10T07:49:39.405Z,4.22
2023-05-10T07:52:06.438Z,10.68
2023-05-10T07:54:33.657Z,7.18
2023-05-10T07:57:01.295Z,10.60
2023-05-10T07:59:28.293Z,4.78
2023-05-10T08:01:55.325Z,9.60
2023-05-10T08:04:22.404Z,7.45
2023-05-10T08:06:49.371Z,5.20
2023-05-10T08:09:17.188Z,7.15
2023-05-10T08:11:44.131Z,8.27
2023-05-10T08:14:11.150Z,8.18
2023-05-10T08:16:38.192Z,10.98
2023-05-10T08:19:06.404Z,12.23
2023-05-10T08:21:33.450Z,8.90
2023-05-10T08:24:00.373Z,10.07
2023-05-10T08:26:27.573Z,4.15
2023-05-10T08:28:54.553Z,6.78
2023-05-10T08:31:21.474Z,5.70
2023-05-10T08:33:48.514Z,7.00
2023-05-10T08:36:20.753Z,8.63
2023-05-10T08:38:48.387Z,5.50
2023-05-10T08:41:16.123Z,7.43
2023-05-10T08:43:47.398Z,11.20
2023-05-10T08:46:21.240Z,9.07
2023-05-10T08:48:49.837Z,5.07
2023-05-10T08:51:19.995Z,10.30
2023-05-10T08:53:47.213Z,6.78
2023-05-10T08:56:14.261Z,8.50
2023-05-10T08:58:41.317Z,9.18
2023-05-10T09:01:09.947Z,14.30
2023-05-10T09:03:39.832Z,6.53
2023-05-10T09:06:08.026Z,4.63
2023-05-10T09:08:35.491Z,5.72
2023-05-10T09:11:02.858Z,5.07
2023-05-10T09:13:30.017Z,11.25
2023-05-10T09:15:58.844Z,5.78
2023-05-10T09:18:29.450Z,4.18
2023-05-10T09:20:56.419Z,6.80
2023-05-10T09:23:24.096Z,10.43
2023-05-10T09:26:04.934Z,11.35
2023-05-10T09:28:50.992Z,20.75
2023-05-10T09:31:18.505Z,6.88
2023-05-10T09:33:47.377Z,17.05
2023-05-10T09:36:15.202Z,10.77
2023-05-10T09:38:55.920Z,8.65
2023-05-10T09:41:24.519Z,8.45
2023-05-10T09:43:56.243Z,7.85
2023-05-10T09:46:27.055Z,9.25
2023-05-10T09:48:54.061Z,14.38
2023-05-10T09:51:21.931Z,11.32
2023-05-10T09:53:49.863Z,13.30
2023-05-10T09:56:34.898Z,15.75
2023-05-10T09:59:05.105Z,10.40
2023-05-10T10:01:33.002Z,14.57
2023-05-10T10:04:00.228Z,17.75
2023-05-10T10:06:30.410Z,13.57
2023-05-10T10:08:57.841Z,12.65
2023-05-10T10:11:25.338Z,17.08
2023-05-10T10:13:52.700Z,13.00
2023-05-10T10:16:19.737Z,14.65
2023-05-10T10:18:47.077Z,9.32
2023-05-10T10:21:16.514Z,14.65
2023-05-10T10:23:44.612Z,14.60
2023-05-10T10:26:12.408Z,7.90
2023-05-10T10:28:57.916Z,8.85
2023-05-10T10:31:33.556Z,11.05
2023-05-10T10:34:21.090Z,9.27
2023-05-10T10:36:48.535Z,9.40
2023-05-10T10:39:17.048Z,9.18
2023-05-10T10:41:57.926Z,9.52
2023-05-10T10:44:26.324Z,7.70
2023-05-10T10:47:24.470Z,13.85
2023-05-10T10:50:03.294Z,12.98
2023-05-10T10:52:38.057Z,9.88
2023-05-10T10:55:07.787Z,8.05
2023-05-10T10:57:50.033Z,10.80
2023-05-10T11:00:22.829Z,5.78
2023-05-10T11:02:55.464Z,8.50
2023-05-10T11:05:42.159Z,13.48
2023-05-10T11:08:12.318Z,7.50
2023-05-10T11:10:40.368Z,10.27
2023-05-10T11:13:09.481Z,11.20
2023-05-10T11:15:38.281Z,16.63
2023-05-10T11:18:28.123Z,13.98
2023-05-10T11:21:06.523Z,8.00
2023-05-10T11:23:49.336Z,10.43
2023-05-10T11:26:16.544Z,9.55
2023-05-10T11:28:50.196Z,9.88
2023-05-10T11:31:21.483Z,11.73
2023-05-10T11:33:48.612Z,10.50
2023-05-10T11:36:27.221Z,11.38
2023-05-10T11:38:55.401Z,9.88
2023-05-10T11:41:24.376Z,14.68
2023-05-10T11:43:53.068Z,16.17
2023-05-10T11:46:22.030Z,14.43
2023-05-10T11:48:54.633Z,14.80
2023-05-10T11:51:26.270Z,15.20
2023-05-10T11:53:58.159Z,11.52
2023-05-10T11:56:27.335Z,8.52
2023-05-10T11:58:56.879Z,13.90
2023-05-10T12:01:25.461Z,13.90
2023-05-10T12:03:54.405Z,13.43
2023-05-10T12:06:22.309Z,17.38
2023-05-10T12:08:53.680Z,13.60
2023-05-10T12:11:22.816Z,12.10
2023-05-10T12:13:50.988Z,11.23
2023-05-10T12:16:22.764Z,19.55
2023-05-10T12:18:52.175Z,14.10
2023-05-10T12:21:21.194Z,9.43
2023-05-10T12:23:51.856Z,14.73
2023-05-10T12:26:19.062Z,14.88
2023-05-10T12:28:45.937Z,18.92
2023-05-10T12:31:14.713Z,14.73
2023-05-10T12:33:44.642Z,14.73
2023-05-10T12:36:13.828Z,12.20
2023-05-10T12:38:50.974Z,17.40
2023-05-10T12:41:19.146Z,13.27
2023-05-10T12:43:46.652Z,10.35
2023-05-10T12:46:16.350Z,12.13
2023-05-10T12:48:44.372Z,11.98
2023-05-10T12:51:13.903Z,10.60
2023-05-10T12:53:43.699Z,11.95
2023-05-10T12:56:12.217Z,18.90
2023-05-10T12:58:39.756Z,12.82
2023-05-10T13:01:07.102Z,11.77
2023-05-10T13:03:34.193Z,10.02
2023-05-10T13:06:01.289Z,10.27
2023-05-10T13:08:29.396Z,11.65
2023-05-10T13:10:56.532Z,14.23
2023-05-10T13:13:23.463Z,12.75
2023-05-10T13:15:50.335Z,10.43
2023-05-10T13:18:17.292Z,13.77
2023-05-10T13:20:45.517Z,17.80
2023-05-10T13:23:12.618Z,12.32
2023-05-10T13:25:40.147Z,11.98
2023-05-10T13:28:07.071Z,13.85
2023-05-10T13:30:34.413Z,11.73
2023-05-10T13:33:01.524Z,16.83
2023-05-10T13:35:28.709Z,15.77
2023-05-10T13:37:58.918Z,12.20
2023-05-10T13:40:25.987Z,26.00
2023-05-10T13:42:54.043Z,12.43
2023-05-10T13:45:21.286Z,15.50
2023-05-10T13:47:48.442Z,13.65
2023-05-10T13:50:15.539Z,11.07
2023-05-10T13:52:42.446Z,12.07
2023-05-10T13:55:09.663Z,11.50
2023-05-10T13:57:37.016Z,26.17
2023-05-10T14:00:04.425Z,9.88
2023-05-10T14:02:34.894Z,16.00
2023-05-10T14:05:02.398Z,16.52
2023-05-10T14:07:29.455Z,13.63
2023-05-10T14:09:56.361Z,11.00
2023-05-10T14:12:23.241Z,10.80
2023-05-10T14:14:50.370Z,14.02
2023-05-10T14:17:17.255Z,12.90
2023-05-10T14:19:44.322Z,13.38
2023-05-10T14:22:11.318Z,14.82
2023-05-10T14:24:39.452Z,13.13
2023-05-10T14:27:07.070Z,12.10
2023-05-10T14:29:34.132Z,16.67
2023-05-10T14:32:01.250Z,13.30
2023-05-10T14:34:28.202Z,15.38
2023-05-10T14:36:55.325Z,15.50
2023-05-10T14:39:22.268Z,20.67
2023-05-10T14:41:49.799Z,13.48
2023-05-10T14:44:17.186Z,17.98
2023-05-10T14:46:44.075Z,8.98
2023-05-10T14:49:10.932Z,20.20
2023-05-10T14:51:37.996Z,7.90
2023-05-10T14:54:05.108Z,16.13
2023-05-10T14:56:32.829Z,14.40
2023-05-10T14:59:00.510Z,13.38
2023-05-10T15:01:27.964Z,19.65
2023-05-10T15:03:55.392Z,12.82
2023-05-10T15:06:32.398Z,13.20
2023-05-10T15:08:59.301Z,13.90
2023-05-10T15:11:26.321Z,23.35
2023-05-10T15:13:53.611Z,11.90
2023-05-10T15:16:20.781Z,14.07
2023-05-10T15:18:47.711Z,18.15
2023-05-10T15:21:14.658Z,15.55
2023-05-10T15:23:41.679Z,15.13
2023-05-10T15:26:08.861Z,13.90
2023-05-10T15:28:35.715Z,16.08
2023-05-10T15:31:02.652Z,14.23
2023-05-10T15:33:29.765Z,18.10
2023-05-10T15:35:56.803Z,20.65
2023-05-10T15:38:23.658Z,19.08
2023-05-10T15:40:50.576Z,32.35
2023-05-10T15:43:17.589Z,17.02
2023-05-10T15:45:44.494Z,13.07
2023-05-10T15:48:11.386Z,11.88
2023-05-10T15:50:38.415Z,17.58
2023-05-10T15:53:05.749Z,12.80
2023-05-10T15:55:32.683Z,23.23
2023-05-10T15:58:00.361Z,13.75
2023-05-10T16:00:27.397Z,20.58
2023-05-10T16:02:54.585Z,9.90
2023-05-10T16:05:22.306Z,19.40
2023-05-10T16:07:49.525Z,21.85
2023-05-10T16:10:16.590Z,16.42
2023-05-10T16:12:43.643Z,22.13
2023-05-10T16:15:10.988Z,19.70
2023-05-10T16:17:38.027Z,17.75
2023-05-10T16:20:06.126Z,15.93
2023-05-10T16:22:33.177Z,14.52
2023-05-10T16:25:00.272Z,17.95
2023-05-10T16:27:30.311Z,27.73
2023-05-10T16:29:57.482Z,21.27
2023-05-10T16:32:24.747Z,15.95
2023-05-10T16:34:53.517Z,22.92
2023-05-10T16:37:20.944Z,18.88
2023-05-10T16:39:48.295Z,17.30
2023-05-10T16:42:15.278Z,16.98
2023-05-10T16:44:42.961Z,18.70
2023-05-10T16:47:10.134Z,20.13
2023-05-10T16:49:37.445Z,16.23
2023-05-10T16:52:04.475Z,11.40
2023-05-10T16:54:31.836Z,20.60
2023-05-10T16:56:58.720Z,19.77
2023-05-10T16:59:25.645Z,21.65
2023-05-10T17:01:53.387Z,20.98
2023-05-10T17:04:20.641Z,15.30
2023-05-10T17:06:47.549Z,15.80
2023-05-10T17:09:14.539Z,15.55
2023-05-10T17:11:42.232Z,23.52
2023-05-10T17:14:10.259Z,13.40
2023-05-10T17:16:37.419Z,19.00
2023-05-10T17:19:04.595Z,18.77
2023-05-10T17:21:32.172Z,15.52
2023-05-10T17:23:59.111Z,17.42
2023-05-10T17:26:27.718Z,13.77
2023-05-10T17:28:55.136Z,15.95
2023-05-10T17:31:22.077Z,16.85
2023-05-10T17:33:49.293Z,19.08
2023-05-10T17:36:16.340Z,18.38
2023-05-10T17:38:43.590Z,12.60
2023-05-10T17:41:10.888Z,15.48
2023-05-10T17:43:37.840Z,17.85
2023-05-10T17:46:04.785Z,14.63
2023-05-10T17:48:31.938Z,17.77
2023-05-10T17:50:58.880Z,24.02
2023-05-10T17:53:25.935Z,12.70
2023-05-10T17:55:52.935Z,21.67
2023-05-10T17:58:19.916Z,17.38
2023-05-10T18:00:47.220Z,17.88
2023-05-10T18:03:14.205Z,22.67
2023-05-10T18:05:41.381Z,22.88
2023-05-10T18:08:08.793Z,18.48
2023-05-10T18:10:38.825Z,23.42
2023-05-10T18:13:08.948Z,15.43
2023-05-10T18:15:36.439Z,15.77
2023-05-10T18:18:04.727Z,14.27
2023-05-10T18:20:31.988Z,16.25
2023-05-10T18:22:59.161Z,21.45
2023-05-10T18:25:26.339Z,14.90
2023-05-10T18:27:53.406Z,15.82
2023-05-10T18:30:20.331Z,15.23
2023-05-10T18:32:47.284Z,11.98
2023-05-10T18:35:14.710Z,13.65
2023-05-10T18:37:42.572Z,16.35
2023-05-10T18:40:11.223Z,13.02
2023-05-10T18:42:38.497Z,16.77
2023-05-10T18:45:06.592Z,18.67
2023-05-10T18:47:33.584Z,21.42
2023-05-10T18:50:01.060Z,13.70
2023-05-10T18:52:28.005Z,13.60
2023-05-10T18:54:55.074Z,17.27
2023-05-10T18:57:22.346Z,31.95
2023-05-10T18:59:49.540Z,15.45
2023-05-10T19:02:16.548Z,19.52
2023-05-10T19:04:44.422Z,15.90
2023-05-10T19:07:11.549Z,17.90
2023-05-10T19:09:38.585Z,14.30
2023-05-10T19:12:05.762Z,16.70
2023-05-10T19:14:32.741Z,12.65
2023-05-10T19:17:01.638Z,15.38
2023-05-10T19:19:31.814Z,15.70
2023-05-10T19:21:59.073Z,14.90
2023-05-10T19:24:26.166Z,19.05
2023-05-10T19:26:53.772Z,11.20
2023-05-10T19:29:20.686Z,16.88
2023-05-10T19:31:48.903Z,18.38
2023-05-10T19:34:16.525Z,13.65
2023-05-10T19:36:43.842Z,13.00
2023-05-10T19:39:11.768Z,12.82
2023-05-10T19:41:38.976Z,18.38
2023-05-10T19:44:06.594Z,17.80
2023-05-10T19:46:34.362Z,13.57
2023-05-10T19:49:01.580Z,17.77
2023-05-10T19:51:28.978Z,9.07
2023-05-10T19:53:56.425Z,15.90
2023-05-10T19:56:23.998Z,16.73
2023-05-10T19:58:51.161Z,12.90
2023-05-10T20:01:18.278Z,14.48
2023-05-10T20:03:46.819Z,11.57
2023-05-10T20:06:13.859Z,14.40
2023-05-10T20:08:40.785Z,10.60
2023-05-10T20:11:07.818Z,11.77
2023-05-10T20:13:34.839Z,19.15
2023-05-10T20:16:02.614Z,18.58
2023-05-10T20:18:32.420Z,15.80
2023-05-10T20:21:00.723Z,15.73
2023-05-10T20:23:28.086Z,18.23
2023-05-10T20:25:55.352Z,18.88
2023-05-10T20:28:24.228Z,17.40
2023-05-10T20:30:54.614Z,14.70
2023-05-10T20:33:22.682Z,15.27
2023-05-10T20:35:51.599Z,16.80
2023-05-10T20:38:18.689Z,21.52
2023-05-10T20:40:46.582Z,13.35
2023-05-10T20:43:13.775Z,18.48
2023-05-10T20:45:40.764Z,17.45
2023-05-10T20:48:08.125Z,16.00
2023-05-10T20:50:35.699Z,11.85
2023-05-10T20:53:02.900Z,12.10
2023-05-10T20:55:30.244Z,15.63
2023-05-10T20:57:57.267Z,14.55
2023-05-10T21:00:24.456Z,16.85
2023-05-10T21:02:51.413Z,25.05
2023-05-10T21:05:18.956Z,11.75
2023-05-10T21:07:46.159Z,19.98
2023-05-10T21:10:13.118Z,6.93
2023-05-10T21:12:41.529Z,14.90
2023-05-10T21:15:09.274Z,13.63
2023-05-10T21:17:36.251Z,15.60
2023-05-10T21:20:03.837Z,17.60
2023-05-10T21:22:30.824Z,15.95
2023-05-10T21:24:57.997Z,18.55
2023-05-10T21:27:24.974Z,14.25
2023-05-10T21:30:42.507Z,18.58
2023-05-10T21:33:17.911Z,14.05
2023-05-10T21:35:52.966Z,17.52
2023-05-10T21:38:35.186Z,17.35
2023-05-10T21:41:02.522Z,17.85
2023-05-10T21:43:29.572Z,16.30
2023-05-10T21:45:56.620Z,18.02
2023-05-10T21:48:23.849Z,18.48
2023-05-10T21:50:50.888Z,19.65
2023-05-10T21:53:17.854Z,12.82
2023-05-10T21:55:44.904Z,19.50
2023-05-10T21:58:11.951Z,17.45
2023-05-10T22:00:39.119Z,14.15
2023-05-10T22:03:06.171Z,14.75
2023-05-10T22:05:33.284Z,14.98
2023-05-10T22:08:00.509Z,11.32
2023-05-10T22:10:27.617Z,13.80
2023-05-10T22:12:54.525Z,13.07
2023-05-10T22:15:21.896Z,12.57
2023-05-10T22:17:49.151Z,17.77
2023-05-10T22:20:16.301Z,15.60
2023-05-10T22:22:44.538Z,17.83
2023-05-10T22:25:11.590Z,17.17
2023-05-10T22:27:38.883Z,12.25
2023-05-10T22:30:07.504Z,18.92
2023-05-10T22:32:34.847Z,18.38
2023-05-10T22:35:02.006Z,14.18
2023-05-10T22:37:29.223Z,17.83
2023-05-10T22:39:56.511Z,16.52
2023-05-10T22:42:23.507Z,13.05
2023-05-10T22:44:50.671Z,15.02
2023-05-10T22:47:17.633Z,16.30
2023-05-10T22:49:44.525Z,10.85
2023-05-10T22:52:11.472Z,17.45
2023-05-10T22:54:38.389Z,16.05
2023-05-10T22:57:09.254Z,14.55
2023-05-10T22:59:36.188Z,14.50
2023-05-10T23:02:03.252Z,8.35
2023-05-10T23:04:30.332Z,11.38
2023-05-10T23:06:57.337Z,9.32
2023-05-10T23:09:24.428Z,18.88
2023-05-10T23:11:51.342Z,12.48
2023-05-10T23:14:18.398Z,14.85
2023-05-10T23:16:45.438Z,14.02
2023-05-10T23:19:15.343Z,13.77
2023-05-10T23:21:42.257Z,12.43
2023-05-10T23:24:09.335Z,16.40
2023-05-10T23:26:36.459Z,16.85
2023-05-10T23:29:03.445Z,19.55
2023-05-10T23:31:30.563Z,12.40
2023-05-10T23:33:57.554Z,9.35
2023-05-10T23:36:24.485Z,13.88
2023-05-10T23:38:51.575Z,11.48
2023-05-10T23:41:19.014Z,10.10
2023-05-10T23:43:45.947Z,8.75
2023-05-10T23:46:13.016Z,17.60
2023-05-10T23:48:40.154Z,12.63
2023-05-10T23:51:09.247Z,13.30
2023-05-10T23:53:36.590Z,13.10
2023-05-10T23:56:05.060Z,10.38
2023-05-10T23:58:32.014Z,18.67
